sensor_id;sensor_type;location;lat;lon;timestamp;temperature;humidity
61591;DHT22;57639;52.410;-1.966;2023-04-26T00:01:28;16.00;47.30
61591;DHT22;57639;52.410;-1.966;2023-04-26T00:04:34;15.90;47.30
61591;DHT22;57639;52.410;-1.966;2023-04-26T00:07:43;16.00;47.30
61591;DHT22;57639;52.410;-1.966;2023-04-26T00:10:52;16.00;47.20
61591;DHT22;57639;52.410;-1.966;2023-04-26T00:13:58;16.00;47.20
61591;DHT22;57639;52.410;-1.966;2023-04-26T00:17:05;16.00;47.30
61591;DHT22;57639;52.410;-1.966;2023-04-26T00:20:11;15.90;47.30
61591;DHT22;57639;52.410;-1.966;2023-04-26T00:23:21;15.90;47.50
61591;DHT22;57639;52.410;-1.966;2023-04-26T00:26:27;15.90;47.60
61591;DHT22;57639;52.410;-1.966;2023-04-26T00:29:34;15.80;47.40
61591;DHT22;57639;52.410;-1.966;2023-04-26T00:32:40;15.80;47.50
61591;DHT22;57639;52.410;-1.966;2023-04-26T00:35:46;15.80;47.50
61591;DHT22;57639;52.410;-1.966;2023-04-26T00:38:56;15.80;47.40
61591;DHT22;57639;52.410;-1.966;2023-04-26T00:42:02;15.80;47.50
61591;DHT22;57639;52.410;-1.966;2023-04-26T00:45:08;15.80;47.60
61591;DHT22;57639;52.410;-1.966;2023-04-26T00:48:15;15.80;47.70
61591;DHT22;57639;52.410;-1.966;2023-04-26T00:51:21;15.80;47.60
61591;DHT22;57639;52.410;-1.966;2023-04-26T00:54:30;15.80;47.70
61591;DHT22;57639;52.410;-1.966;2023-04-26T00:57:37;15.70;47.70
61591;DHT22;57639;52.410;-1.966;2023-04-26T01:00:44;15.70;47.60
61591;DHT22;57639;52.410;-1.966;2023-04-26T01:03:52;15.70;47.70
61591;DHT22;57639;52.410;-1.966;2023-04-26T01:06:59;15.70;47.60
61591;DHT22;57639;52.410;-1.966;2023-04-26T01:10:10;15.70;47.80
61591;DHT22;57639;52.410;-1.966;2023-04-26T01:13:16;15.70;47.80
61591;DHT22;57639;52.410;-1.966;2023-04-26T01:16:23;15.70;47.80
61591;DHT22;57639;52.410;-1.966;2023-04-26T01:19:30;15.70;47.70
61591;DHT22;57639;52.410;-1.966;2023-04-26T01:22:42;15.60;47.40
61591;DHT22;57639;52.410;-1.966;2023-04-26T01:25:48;15.60;47.60
61591;DHT22;57639;52.410;-1.966;2023-04-26T01:28:55;15.60;47.50
61591;DHT22;57639;52.410;-1.966;2023-04-26T01:32:02;15.60;47.40
61591;DHT22;57639;52.410;-1.966;2023-04-26T01:35:08;15.60;47.50
61591;DHT22;57639;52.410;-1.966;2023-04-26T01:38:17;15.60;47.40
61591;DHT22;57639;52.410;-1.966;2023-04-26T01:41:24;15.60;47.50
61591;DHT22;57639;52.410;-1.966;2023-04-26T01:44:30;15.60;47.40
61591;DHT22;57639;52.410;-1.966;2023-04-26T01:47:36;15.60;47.40
61591;DHT22;57639;52.410;-1.966;2023-04-26T01:50:43;15.60;47.40
61591;DHT22;57639;52.410;-1.966;2023-04-26T01:53:52;15.60;47.40
61591;DHT22;57639;52.410;-1.966;2023-04-26T01:56:58;15.60;47.60
61591;DHT22;57639;52.410;-1.966;2023-04-26T02:00:06;15.60;47.50
61591;DHT22;57639;52.410;-1.966;2023-04-26T02:03:12;15.60;47.50
61591;DHT22;57639;52.410;-1.966;2023-04-26T02:06:18;15.50;47.40
61591;DHT22;57639;52.410;-1.966;2023-04-26T02:09:28;15.60;47.40
61591;DHT22;57639;52.410;-1.966;2023-04-26T02:12:36;15.50;47.50
61591;DHT22;57639;52.410;-1.966;2023-04-26T02:15:45;15.50;47.50
61591;DHT22;57639;52.410;-1.966;2023-04-26T02:18:52;15.60;47.50
61591;DHT22;57639;52.410;-1.966;2023-04-26T02:21:58;15.50;47.40
61591;DHT22;57639;52.410;-1.966;2023-04-26T02:25:08;15.50;47.50
61591;DHT22;57639;52.410;-1.966;2023-04-26T02:28:15;15.50;47.40
61591;DHT22;57639;52.410;-1.966;2023-04-26T02:31:21;15.50;47.50
61591;DHT22;57639;52.410;-1.966;2023-04-26T02:34:27;15.50;47.50
61591;DHT22;57639;52.410;-1.966;2023-04-26T02:37:34;15.50;47.60
61591;DHT22;57639;52.410;-1.966;2023-04-26T02:40:43;15.50;47.60
61591;DHT22;57639;52.410;-1.966;2023-04-26T02:43:49;15.50;47.60
61591;DHT22;57639;52.410;-1.966;2023-04-26T02:46:56;15.50;47.50
61591;DHT22;57639;52.410;-1.966;2023-04-26T02:50:02;15.50;47.60
61591;DHT22;57639;52.410;-1.966;2023-04-26T02:53:09;15.40;47.70
61591;DHT22;57639;52.410;-1.966;2023-04-26T02:56:18;15.40;47.70
61591;DHT22;57639;52.410;-1.966;2023-04-26T02:59:25;15.40;47.70
61591;DHT22;57639;52.410;-1.966;2023-04-26T03:02:31;15.40;47.70
61591;DHT22;57639;52.410;-1.966;2023-04-26T03:05:38;15.40;47.80
61591;DHT22;57639;52.410;-1.966;2023-04-26T03:08:44;15.40;47.90
61591;DHT22;57639;52.410;-1.966;2023-04-26T03:11:53;15.30;47.90
61591;DHT22;57639;52.410;-1.966;2023-04-26T03:14:59;15.30;48.30
61591;DHT22;57639;52.410;-1.966;2023-04-26T03:18:06;15.30;48.10
61591;DHT22;57639;52.410;-1.966;2023-04-26T03:21:13;15.30;48.40
61591;DHT22;57639;52.410;-1.966;2023-04-26T03:24:19;15.30;48.20
61591;DHT22;57639;52.410;-1.966;2023-04-26T03:27:28;15.30;48.00
61591;DHT22;57639;52.410;-1.966;2023-04-26T03:30:34;15.30;48.10
61591;DHT22;57639;52.410;-1.966;2023-04-26T03:33:41;15.30;48.60
61591;DHT22;57639;52.410;-1.966;2023-04-26T03:36:47;15.20;48.40
61591;DHT22;57639;52.410;-1.966;2023-04-26T03:39:53;15.20;49.00
61591;DHT22;57639;52.410;-1.966;2023-04-26T03:43:02;15.20;49.00
61591;DHT22;57639;52.410;-1.966;2023-04-26T03:46:09;15.20;48.40
61591;DHT22;57639;52.410;-1.966;2023-04-26T03:49:18;15.20;48.40
61591;DHT22;57639;52.410;-1.966;2023-04-26T03:52:24;15.20;48.50
61591;DHT22;57639;52.410;-1.966;2023-04-26T03:55:30;15.20;48.80
61591;DHT22;57639;52.410;-1.966;2023-04-26T03:58:40;15.10;48.60
61591;DHT22;57639;52.410;-1.966;2023-04-26T04:01:46;15.20;49.00
61591;DHT22;57639;52.410;-1.966;2023-04-26T04:04:54;15.10;49.00
61591;DHT22;57639;52.410;-1.966;2023-04-26T04:08:01;15.10;49.20
61591;DHT22;57639;52.410;-1.966;2023-04-26T04:11:07;15.10;48.80
61591;DHT22;57639;52.410;-1.966;2023-04-26T04:14:16;15.10;49.30
61591;DHT22;57639;52.410;-1.966;2023-04-26T04:17:22;15.10;48.90
61591;DHT22;57639;52.410;-1.966;2023-04-26T04:20:29;15.10;49.40
61591;DHT22;57639;52.410;-1.966;2023-04-26T04:23:35;15.10;49.30
61591;DHT22;57639;52.410;-1.966;2023-04-26T04:26:41;15.10;48.70
61591;DHT22;57639;52.410;-1.966;2023-04-26T04:29:50;15.10;48.90
61591;DHT22;57639;52.410;-1.966;2023-04-26T04:32:57;15.10;48.50
61591;DHT22;57639;52.410;-1.966;2023-04-26T04:36:06;15.10;49.00
61591;DHT22;57639;52.410;-1.966;2023-04-26T04:39:12;15.10;48.70
61591;DHT22;57639;52.410;-1.966;2023-04-26T04:42:19;15.10;48.80
61591;DHT22;57639;52.410;-1.966;2023-04-26T04:45:29;15.10;49.30
61591;DHT22;57639;52.410;-1.966;2023-04-26T04:48:35;15.10;49.30
61591;DHT22;57639;52.410;-1.966;2023-04-26T04:51:42;15.10;49.40
61591;DHT22;57639;52.410;-1.966;2023-04-26T04:54:48;15.10;49.50
61591;DHT22;57639;52.410;-1.966;2023-04-26T04:57:54;15.10;49.60
61591;DHT22;57639;52.410;-1.966;2023-04-26T05:01:03;15.10;49.30
61591;DHT22;57639;52.410;-1.966;2023-04-26T05:04:10;15.00;49.50
61591;DHT22;57639;52.410;-1.966;2023-04-26T05:07:16;15.00;49.50
61591;DHT22;57639;52.410;-1.966;2023-04-26T05:10:22;15.00;49.50
61591;DHT22;57639;52.410;-1.966;2023-04-26T05:13:29;15.00;49.60
61591;DHT22;57639;52.410;-1.966;2023-04-26T05:16:38;15.00;49.70
61591;DHT22;57639;52.410;-1.966;2023-04-26T05:19:44;14.90;49.70
61591;DHT22;57639;52.410;-1.966;2023-04-26T05:22:50;14.90;49.80
61591;DHT22;57639;52.410;-1.966;2023-04-26T05:26:00;14.90;49.80
61591;DHT22;57639;52.410;-1.966;2023-04-26T05:29:06;14.90;49.90
61591;DHT22;57639;52.410;-1.966;2023-04-26T05:32:16;14.90;49.90
61591;DHT22;57639;52.410;-1.966;2023-04-26T05:35:22;14.90;49.90
61591;DHT22;57639;52.410;-1.966;2023-04-26T05:38:28;14.90;49.90
61591;DHT22;57639;52.410;-1.966;2023-04-26T05:41:34;14.80;49.90
61591;DHT22;57639;52.410;-1.966;2023-04-26T05:44:41;14.80;50.00
61591;DHT22;57639;52.410;-1.966;2023-04-26T05:47:50;14.80;50.00
61591;DHT22;57639;52.410;-1.966;2023-04-26T05:50:56;14.80;50.00
61591;DHT22;57639;52.410;-1.966;2023-04-26T05:54:02;14.80;50.00
61591;DHT22;57639;52.410;-1.966;2023-04-26T05:57:09;14.80;49.90
61591;DHT22;57639;52.410;-1.966;2023-04-26T06:00:16;14.80;49.80
61591;DHT22;57639;52.410;-1.966;2023-04-26T06:03:28;14.80;50.00
61591;DHT22;57639;52.410;-1.966;2023-04-26T06:06:34;14.80;50.00
61591;DHT22;57639;52.410;-1.966;2023-04-26T06:09:40;14.80;50.00
61591;DHT22;57639;52.410;-1.966;2023-04-26T06:12:47;14.70;49.90
61591;DHT22;57639;52.410;-1.966;2023-04-26T06:15:53;14.80;49.30
61591;DHT22;57639;52.410;-1.966;2023-04-26T06:19:02;14.90;49.30
61591;DHT22;57639;52.410;-1.966;2023-04-26T06:22:09;15.00;49.40
61591;DHT22;57639;52.410;-1.966;2023-04-26T06:25:16;15.10;49.00
61591;DHT22;57639;52.410;-1.966;2023-04-26T06:28:23;15.20;48.80
61591;DHT22;57639;52.410;-1.966;2023-04-26T06:31:29;15.40;48.60
61591;DHT22;57639;52.410;-1.966;2023-04-26T06:34:38;15.50;48.60
61591;DHT22;57639;52.410;-1.966;2023-04-26T06:37:46;15.60;48.50
61591;DHT22;57639;52.410;-1.966;2023-04-26T06:40:52;15.80;48.60
61591;DHT22;57639;52.410;-1.966;2023-04-26T06:43:58;16.10;48.60
61591;DHT22;57639;52.410;-1.966;2023-04-26T06:47:04;16.30;48.90
61591;DHT22;57639;52.410;-1.966;2023-04-26T06:50:16;16.50;49.30
61591;DHT22;57639;52.410;-1.966;2023-04-26T06:53:22;16.60;48.90
61591;DHT22;57639;52.410;-1.966;2023-04-26T06:56:28;16.80;48.70
61591;DHT22;57639;52.410;-1.966;2023-04-26T06:59:34;17.00;48.70
61591;DHT22;57639;52.410;-1.966;2023-04-26T07:02:41;17.10;48.50
61591;DHT22;57639;52.410;-1.966;2023-04-26T07:05:50;17.30;48.40
61591;DHT22;57639;52.410;-1.966;2023-04-26T07:08:57;17.50;48.10
61591;DHT22;57639;52.410;-1.966;2023-04-26T07:12:04;17.60;47.90
61591;DHT22;57639;52.410;-1.966;2023-04-26T07:15:11;17.70;47.70
61591;DHT22;57639;52.410;-1.966;2023-04-26T07:18:17;17.80;47.40
61591;DHT22;57639;52.410;-1.966;2023-04-26T07:21:26;17.90;47.30
61591;DHT22;57639;52.410;-1.966;2023-04-26T07:24:33;17.90;47.20
61591;DHT22;57639;52.410;-1.966;2023-04-26T07:27:39;17.90;47.10
61591;DHT22;57639;52.410;-1.966;2023-04-26T07:30:45;18.00;47.10
61591;DHT22;57639;52.410;-1.966;2023-04-26T07:33:51;18.00;47.10
61591;DHT22;57639;52.410;-1.966;2023-04-26T07:37:01;18.00;47.10
61591;DHT22;57639;52.410;-1.966;2023-04-26T07:40:09;17.90;47.10
61591;DHT22;57639;52.410;-1.966;2023-04-26T07:43:15;18.00;47.10
61591;DHT22;57639;52.410;-1.966;2023-04-26T07:46:22;17.90;47.10
61591;DHT22;57639;52.410;-1.966;2023-04-26T07:49:28;17.90;47.20
61591;DHT22;57639;52.410;-1.966;2023-04-26T07:52:37;17.80;47.30
61591;DHT22;57639;52.410;-1.966;2023-04-26T07:55:45;17.70;47.50
61591;DHT22;57639;52.410;-1.966;2023-04-26T07:58:51;17.60;47.60
61591;DHT22;57639;52.410;-1.966;2023-04-26T08:01:58;17.60;47.60
61591;DHT22;57639;52.410;-1.966;2023-04-26T08:05:05;17.60;47.90
61591;DHT22;57639;52.410;-1.966;2023-04-26T08:08:14;17.50;47.90
61591;DHT22;57639;52.410;-1.966;2023-04-26T08:11:20;17.40;48.10
61591;DHT22;57639;52.410;-1.966;2023-04-26T08:14:27;17.40;48.40
61591;DHT22;57639;52.410;-1.966;2023-04-26T08:17:33;17.30;48.30
61591;DHT22;57639;52.410;-1.966;2023-04-26T08:20:40;17.20;48.40
61591;DHT22;57639;52.410;-1.966;2023-04-26T08:23:49;17.20;48.30
61591;DHT22;57639;52.410;-1.966;2023-04-26T08:26:55;17.10;48.10
61591;DHT22;57639;52.410;-1.966;2023-04-26T08:30:03;17.10;48.50
61591;DHT22;57639;52.410;-1.966;2023-04-26T08:33:10;17.10;49.00
61591;DHT22;57639;52.410;-1.966;2023-04-26T08:36:16;17.00;49.00
61591;DHT22;57639;52.410;-1.966;2023-04-26T08:39:25;17.00;49.20
61591;DHT22;57639;52.410;-1.966;2023-04-26T08:42:32;16.90;49.60
61591;DHT22;57639;52.410;-1.966;2023-04-26T08:45:40;16.90;48.70
61591;DHT22;57639;52.410;-1.966;2023-04-26T08:48:52;16.80;48.40
61591;DHT22;57639;52.410;-1.966;2023-04-26T08:52:01;16.80;48.10
61591;DHT22;57639;52.410;-1.966;2023-04-26T08:55:13;16.80;48.10
61591;DHT22;57639;52.410;-1.966;2023-04-26T08:58:22;16.80;48.00
61591;DHT22;57639;52.410;-1.966;2023-04-26T09:01:29;16.80;48.20
61591;DHT22;57639;52.410;-1.966;2023-04-26T09:04:36;16.90;48.40
61591;DHT22;57639;52.410;-1.966;2023-04-26T09:07:44;16.80;48.50
61591;DHT22;57639;52.410;-1.966;2023-04-26T09:10:53;16.80;48.40
61591;DHT22;57639;52.410;-1.966;2023-04-26T09:14:00;16.80;48.20
61591;DHT22;57639;52.410;-1.966;2023-04-26T09:17:24;16.80;48.10
61591;DHT22;57639;52.410;-1.966;2023-04-26T09:20:30;16.80;48.20
61591;DHT22;57639;52.410;-1.966;2023-04-26T09:23:56;16.80;48.30
61591;DHT22;57639;52.410;-1.966;2023-04-26T09:27:06;16.70;48.20
61591;DHT22;57639;52.410;-1.966;2023-04-26T09:30:15;16.70;48.00
61591;DHT22;57639;52.410;-1.966;2023-04-26T09:33:22;16.70;48.20
61591;DHT22;57639;52.410;-1.966;2023-04-26T09:36:29;16.70;48.50
61591;DHT22;57639;52.410;-1.966;2023-04-26T09:39:36;16.70;48.20
61591;DHT22;57639;52.410;-1.966;2023-04-26T09:42:46;16.70;48.40
61591;DHT22;57639;52.410;-1.966;2023-04-26T09:46:01;16.70;48.40
61591;DHT22;57639;52.410;-1.966;2023-04-26T09:49:07;16.60;48.20
61591;DHT22;57639;52.410;-1.966;2023-04-26T09:52:17;16.60;48.70
61591;DHT22;57639;52.410;-1.966;2023-04-26T09:55:27;16.60;48.70
61591;DHT22;57639;52.410;-1.966;2023-04-26T09:58:37;16.60;48.90
61591;DHT22;57639;52.410;-1.966;2023-04-26T10:01:44;16.60;49.20
61591;DHT22;57639;52.410;-1.966;2023-04-26T10:04:52;16.60;49.00
61591;DHT22;57639;52.410;-1.966;2023-04-26T10:07:59;16.60;49.10
61591;DHT22;57639;52.410;-1.966;2023-04-26T10:11:06;16.60;49.10
61591;DHT22;57639;52.410;-1.966;2023-04-26T10:14:16;16.60;49.00
61591;DHT22;57639;52.410;-1.966;2023-04-26T10:17:23;16.50;49.00
61591;DHT22;57639;52.410;-1.966;2023-04-26T10:20:29;16.50;49.10
61591;DHT22;57639;52.410;-1.966;2023-04-26T10:23:36;16.50;48.80
61591;DHT22;57639;52.410;-1.966;2023-04-26T10:26:47;16.50;48.90
61591;DHT22;57639;52.410;-1.966;2023-04-26T10:30:09;16.50;48.80
61591;DHT22;57639;52.410;-1.966;2023-04-26T10:33:16;16.50;48.60
61591;DHT22;57639;52.410;-1.966;2023-04-26T10:36:23;16.40;48.40
61591;DHT22;57639;52.410;-1.966;2023-04-26T10:39:30;16.50;48.50
61591;DHT22;57639;52.410;-1.966;2023-04-26T10:42:36;16.40;48.50
61591;DHT22;57639;52.410;-1.966;2023-04-26T10:45:46;16.40;48.50
61591;DHT22;57639;52.410;-1.966;2023-04-26T10:48:52;16.40;48.40
61591;DHT22;57639;52.410;-1.966;2023-04-26T10:52:18;16.40;48.30
61591;DHT22;57639;52.410;-1.966;2023-04-26T10:55:37;16.40;48.20
61591;DHT22;57639;52.410;-1.966;2023-04-26T10:58:45;16.40;48.20
61591;DHT22;57639;52.410;-1.966;2023-04-26T11:01:54;16.40;48.10
61591;DHT22;57639;52.410;-1.966;2023-04-26T11:05:07;16.40;48.10
61591;DHT22;57639;52.410;-1.966;2023-04-26T11:08:15;16.40;48.00
61591;DHT22;57639;52.410;-1.966;2023-04-26T11:11:25;16.40;48.00
61591;DHT22;57639;52.410;-1.966;2023-04-26T11:14:34;16.40;48.20
61591;DHT22;57639;52.410;-1.966;2023-04-26T11:17:44;16.50;47.90
61591;DHT22;57639;52.410;-1.966;2023-04-26T11:20:50;16.60;47.80
61591;DHT22;57639;52.410;-1.966;2023-04-26T11:23:57;16.70;47.60
61591;DHT22;57639;52.410;-1.966;2023-04-26T11:27:07;17.00;47.40
61591;DHT22;57639;52.410;-1.966;2023-04-26T11:30:17;17.20;47.10
61591;DHT22;57639;52.410;-1.966;2023-04-26T11:33:26;17.50;46.80
61591;DHT22;57639;52.410;-1.966;2023-04-26T11:36:37;17.70;46.50
61591;DHT22;57639;52.410;-1.966;2023-04-26T11:39:44;17.90;46.20
61591;DHT22;57639;52.410;-1.966;2023-04-26T11:42:50;18.00;45.90
61591;DHT22;57639;52.410;-1.966;2023-04-26T11:45:58;18.20;45.70
61591;DHT22;57639;52.410;-1.966;2023-04-26T11:49:08;18.30;45.50
61591;DHT22;57639;52.410;-1.966;2023-04-26T11:52:15;18.30;45.40
61591;DHT22;57639;52.410;-1.966;2023-04-26T11:55:27;18.40;45.30
61591;DHT22;57639;52.410;-1.966;2023-04-26T11:58:36;18.40;45.30
61591;DHT22;57639;52.410;-1.966;2023-04-26T12:01:49;18.40;45.30
61591;DHT22;57639;52.410;-1.966;2023-04-26T12:05:00;18.50;45.20
61591;DHT22;57639;52.410;-1.966;2023-04-26T12:08:09;18.40;45.10
61591;DHT22;57639;52.410;-1.966;2023-04-26T12:11:16;18.40;45.10
61591;DHT22;57639;52.410;-1.966;2023-04-26T12:14:23;18.40;45.20
61591;DHT22;57639;52.410;-1.966;2023-04-26T12:17:39;18.40;45.10
61591;DHT22;57639;52.410;-1.966;2023-04-26T12:20:48;18.30;45.20
61591;DHT22;57639;52.410;-1.966;2023-04-26T12:23:55;18.30;45.20
61591;DHT22;57639;52.410;-1.966;2023-04-26T12:27:01;18.20;45.30
61591;DHT22;57639;52.410;-1.966;2023-04-26T12:30:08;18.20;45.30
61591;DHT22;57639;52.410;-1.966;2023-04-26T12:33:15;18.10;45.20
61591;DHT22;57639;52.410;-1.966;2023-04-26T12:36:44;18.10;45.30
61591;DHT22;57639;52.410;-1.966;2023-04-26T12:40:08;18.10;45.40
61591;DHT22;57639;52.410;-1.966;2023-04-26T12:43:12;18.00;45.50
61591;DHT22;57639;52.410;-1.966;2023-04-26T12:46:35;18.00;45.50
61591;DHT22;57639;52.410;-1.966;2023-04-26T12:49:41;18.00;45.50
61591;DHT22;57639;52.410;-1.966;2023-04-26T12:52:52;18.00;45.50
61591;DHT22;57639;52.410;-1.966;2023-04-26T12:55:59;17.90;45.60
61591;DHT22;57639;52.410;-1.966;2023-04-26T12:59:05;17.90;45.60
61591;DHT22;57639;52.410;-1.966;2023-04-26T13:02:12;17.90;45.60
61591;DHT22;57639;52.410;-1.966;2023-04-26T13:05:18;17.80;45.70
61591;DHT22;57639;52.410;-1.966;2023-04-26T13:08:29;17.80;45.80
61591;DHT22;57639;52.410;-1.966;2023-04-26T13:11:35;17.70;45.90
61591;DHT22;57639;52.410;-1.966;2023-04-26T13:14:42;17.70;46.00
61591;DHT22;57639;52.410;-1.966;2023-04-26T13:17:48;17.60;46.10
61591;DHT22;57639;52.410;-1.966;2023-04-26T13:20:54;17.60;46.30
61591;DHT22;57639;52.410;-1.966;2023-04-26T13:24:04;17.60;46.50
61591;DHT22;57639;52.410;-1.966;2023-04-26T13:27:10;17.50;46.40
61591;DHT22;57639;52.410;-1.966;2023-04-26T13:30:17;17.50;46.60
61591;DHT22;57639;52.410;-1.966;2023-04-26T13:33:23;17.40;46.80
61591;DHT22;57639;52.410;-1.966;2023-04-26T13:36:30;17.40;46.90
61591;DHT22;57639;52.410;-1.966;2023-04-26T13:39:39;17.30;46.80
61591;DHT22;57639;52.410;-1.966;2023-04-26T13:42:45;17.30;46.60
61591;DHT22;57639;52.410;-1.966;2023-04-26T13:45:52;17.30;46.20
61591;DHT22;57639;52.410;-1.966;2023-04-26T13:48:58;17.30;46.30
61591;DHT22;57639;52.410;-1.966;2023-04-26T13:52:04;17.30;46.30
61591;DHT22;57639;52.410;-1.966;2023-04-26T13:55:13;17.30;46.20
61591;DHT22;57639;52.410;-1.966;2023-04-26T13:58:20;17.40;46.20
61591;DHT22;57639;52.410;-1.966;2023-04-26T14:01:26;17.40;46.20
61591;DHT22;57639;52.410;-1.966;2023-04-26T14:04:32;17.40;46.30
61591;DHT22;57639;52.410;-1.966;2023-04-26T14:07:39;17.40;46.40
61591;DHT22;57639;52.410;-1.966;2023-04-26T14:10:50;17.30;46.40
61591;DHT22;57639;52.410;-1.966;2023-04-26T14:14:00;17.30;46.50
61591;DHT22;57639;52.410;-1.966;2023-04-26T14:17:09;17.30;46.50
61591;DHT22;57639;52.410;-1.966;2023-04-26T14:20:15;17.30;46.50
61591;DHT22;57639;52.410;-1.966;2023-04-26T14:23:22;17.20;46.40
61591;DHT22;57639;52.410;-1.966;2023-04-26T14:26:47;17.30;46.40
61591;DHT22;57639;52.410;-1.966;2023-04-26T14:30:10;17.20;46.40
61591;DHT22;57639;52.410;-1.966;2023-04-26T14:33:16;17.20;46.20
61591;DHT22;57639;52.410;-1.966;2023-04-26T14:36:23;17.20;46.40
61591;DHT22;57639;52.410;-1.966;2023-04-26T14:39:32;17.20;46.50
61591;DHT22;57639;52.410;-1.966;2023-04-26T14:42:42;17.20;46.60
61591;DHT22;57639;52.410;-1.966;2023-04-26T14:45:48;17.10;46.10
61591;DHT22;57639;52.410;-1.966;2023-04-26T14:48:58;17.10;46.80
61591;DHT22;57639;52.410;-1.966;2023-04-26T14:52:04;17.10;46.90
61591;DHT22;57639;52.410;-1.966;2023-04-26T14:55:15;17.10;46.90
61591;DHT22;57639;52.410;-1.966;2023-04-26T14:58:24;17.10;46.40
61591;DHT22;57639;52.410;-1.966;2023-04-26T15:01:33;17.10;47.00
61591;DHT22;57639;52.410;-1.966;2023-04-26T15:04:42;17.10;47.00
61591;DHT22;57639;52.410;-1.966;2023-04-26T15:07:50;17.10;47.00
61591;DHT22;57639;52.410;-1.966;2023-04-26T15:10:56;17.10;47.00
61591;DHT22;57639;52.410;-1.966;2023-04-26T15:14:15;17.00;46.80
61591;DHT22;57639;52.410;-1.966;2023-04-26T15:17:22;17.00;46.20
61591;DHT22;57639;52.410;-1.966;2023-04-26T15:20:29;17.00;46.60
61591;DHT22;57639;52.410;-1.966;2023-04-26T15:23:35;17.00;46.30
61591;DHT22;57639;52.410;-1.966;2023-04-26T15:26:41;17.00;46.30
61591;DHT22;57639;52.410;-1.966;2023-04-26T15:29:51;17.00;46.40
61591;DHT22;57639;52.410;-1.966;2023-04-26T15:32:58;17.00;46.50
61591;DHT22;57639;52.410;-1.966;2023-04-26T15:36:05;17.00;46.50
61591;DHT22;57639;52.410;-1.966;2023-04-26T15:39:12;16.90;46.80
61591;DHT22;57639;52.410;-1.966;2023-04-26T15:42:21;16.90;46.90
61591;DHT22;57639;52.410;-1.966;2023-04-26T15:45:32;16.90;46.90
61591;DHT22;57639;52.410;-1.966;2023-04-26T15:48:40;16.90;46.90
61591;DHT22;57639;52.410;-1.966;2023-04-26T15:51:49;16.90;46.90
61591;DHT22;57639;52.410;-1.966;2023-04-26T15:54:59;16.90;47.00
61591;DHT22;57639;52.410;-1.966;2023-04-26T15:58:06;16.80;47.00
61591;DHT22;57639;52.410;-1.966;2023-04-26T16:01:19;16.90;47.00
61591;DHT22;57639;52.410;-1.966;2023-04-26T16:04:25;16.90;46.80
61591;DHT22;57639;52.410;-1.966;2023-04-26T16:07:33;16.90;46.70
61591;DHT22;57639;52.410;-1.966;2023-04-26T16:10:50;16.90;46.70
61591;DHT22;57639;52.410;-1.966;2023-04-26T16:14:03;17.00;46.30
61591;DHT22;57639;52.410;-1.966;2023-04-26T16:17:12;17.00;46.40
61591;DHT22;57639;52.410;-1.966;2023-04-26T16:20:18;17.00;46.90
61591;DHT22;57639;52.410;-1.966;2023-04-26T16:23:25;17.00;46.90
61591;DHT22;57639;52.410;-1.966;2023-04-26T16:26:37;16.90;47.10
61591;DHT22;57639;52.410;-1.966;2023-04-26T16:29:43;17.00;47.50
61591;DHT22;57639;52.410;-1.966;2023-04-26T16:32:53;17.00;47.70
61591;DHT22;57639;52.410;-1.966;2023-04-26T16:35:59;17.00;48.50
61591;DHT22;57639;52.410;-1.966;2023-04-26T16:39:05;17.10;48.60
61591;DHT22;57639;52.410;-1.966;2023-04-26T16:42:15;17.00;48.90
61591;DHT22;57639;52.410;-1.966;2023-04-26T16:45:21;17.00;49.00
61591;DHT22;57639;52.410;-1.966;2023-04-26T16:48:32;17.00;49.10
61591;DHT22;57639;52.410;-1.966;2023-04-26T16:51:38;17.00;49.20
61591;DHT22;57639;52.410;-1.966;2023-04-26T16:54:46;17.00;49.20
61591;DHT22;57639;52.410;-1.966;2023-04-26T16:57:52;17.00;49.20
61591;DHT22;57639;52.410;-1.966;2023-04-26T17:00:59;17.00;49.20
61591;DHT22;57639;52.410;-1.966;2023-04-26T17:04:09;17.00;49.30
61591;DHT22;57639;52.410;-1.966;2023-04-26T17:07:18;17.00;49.20
61591;DHT22;57639;52.410;-1.966;2023-04-26T17:10:25;17.00;49.00
61591;DHT22;57639;52.410;-1.966;2023-04-26T17:13:31;17.10;49.60
61591;DHT22;57639;52.410;-1.966;2023-04-26T17:16:37;17.10;49.10
61591;DHT22;57639;52.410;-1.966;2023-04-26T17:19:47;17.20;48.90
61591;DHT22;57639;52.410;-1.966;2023-04-26T17:22:53;17.30;49.10
61591;DHT22;57639;52.410;-1.966;2023-04-26T17:26:00;17.50;49.10
61591;DHT22;57639;52.410;-1.966;2023-04-26T17:29:06;17.60;49.00
61591;DHT22;57639;52.410;-1.966;2023-04-26T17:32:13;17.80;48.70
61591;DHT22;57639;52.410;-1.966;2023-04-26T17:35:22;18.10;48.40
61591;DHT22;57639;52.410;-1.966;2023-04-26T17:38:28;18.30;47.90
61591;DHT22;57639;52.410;-1.966;2023-04-26T17:41:35;18.40;47.70
61591;DHT22;57639;52.410;-1.966;2023-04-26T17:44:41;18.60;47.40
61591;DHT22;57639;52.410;-1.966;2023-04-26T17:47:47;18.60;47.30
61591;DHT22;57639;52.410;-1.966;2023-04-26T17:50:57;18.70;47.10
61591;DHT22;57639;52.410;-1.966;2023-04-26T17:54:03;18.70;47.10
61591;DHT22;57639;52.410;-1.966;2023-04-26T17:57:10;18.70;47.00
61591;DHT22;57639;52.410;-1.966;2023-04-26T18:00:20;18.60;46.90
61591;DHT22;57639;52.410;-1.966;2023-04-26T18:03:26;18.60;46.70
61591;DHT22;57639;52.410;-1.966;2023-04-26T18:06:40;18.60;46.80
61591;DHT22;57639;52.410;-1.966;2023-04-26T18:09:46;18.60;46.80
61591;DHT22;57639;52.410;-1.966;2023-04-26T18:12:53;18.60;46.80
61591;DHT22;57639;52.410;-1.966;2023-04-26T18:15:59;18.60;46.70
61591;DHT22;57639;52.410;-1.966;2023-04-26T18:19:05;18.60;46.80
61591;DHT22;57639;52.410;-1.966;2023-04-26T18:22:14;18.60;46.80
61591;DHT22;57639;52.410;-1.966;2023-04-26T18:25:21;18.40;46.80
61591;DHT22;57639;52.410;-1.966;2023-04-26T18:28:27;18.40;46.80
61591;DHT22;57639;52.410;-1.966;2023-04-26T18:31:33;18.30;46.60
61591;DHT22;57639;52.410;-1.966;2023-04-26T18:34:40;18.30;46.80
61591;DHT22;57639;52.410;-1.966;2023-04-26T18:37:49;18.20;46.80
61591;DHT22;57639;52.410;-1.966;2023-04-26T18:40:55;18.20;46.90
61591;DHT22;57639;52.410;-1.966;2023-04-26T18:44:02;18.10;46.90
61591;DHT22;57639;52.410;-1.966;2023-04-26T18:47:12;18.10;46.80
61591;DHT22;57639;52.410;-1.966;2023-04-26T18:50:21;18.10;46.80
61591;DHT22;57639;52.410;-1.966;2023-04-26T18:53:30;18.00;46.90
61591;DHT22;57639;52.410;-1.966;2023-04-26T18:56:37;18.00;46.90
61591;DHT22;57639;52.410;-1.966;2023-04-26T18:59:43;17.90;46.80
61591;DHT22;57639;52.410;-1.966;2023-04-26T19:02:49;17.80;46.70
61591;DHT22;57639;52.410;-1.966;2023-04-26T19:05:56;17.80;46.40
61591;DHT22;57639;52.410;-1.966;2023-04-26T19:09:06;17.80;46.40
61591;DHT22;57639;52.410;-1.966;2023-04-26T19:12:16;17.80;46.10
61591;DHT22;57639;52.410;-1.966;2023-04-26T19:15:22;17.70;46.00
61591;DHT22;57639;52.410;-1.966;2023-04-26T19:18:31;17.60;46.00
61591;DHT22;57639;52.410;-1.966;2023-04-26T19:21:56;17.60;46.10
61591;DHT22;57639;52.410;-1.966;2023-04-26T19:25:09;17.60;46.10
61591;DHT22;57639;52.410;-1.966;2023-04-26T19:28:18;17.50;46.00